Time;durP1;ratioP1;P1;durP2;ratioP2;P2;SDS_P1;SDS_P2;PMS_P1;PMS_P2;Temp;Humidity;BMP_temperature;BMP_pressure;BME280_temperature;BME280_humidity;BME280_pressure;Samples;Min_cycle;Max_cycle;Signal;HPM_P1;HPM_P2
2023/05/18 00:02:07;;;;;;;6.80;3.00;;;;;;;10.95;74.73;100307.41;106402;1282;22524;-46
2023/05/18 00:04:34;;;;;;;3.20;2.10;;;;;;;10.90;74.81;100303.59;106485;1282;25397;-45
2023/05/18 00:07:02;;;;;;;6.70;3.00;;;;;;;10.85;75.08;100302.02;106901;1282;22329;-45
2023/05/18 00:09:31;;;;;;;3.60;2.30;;;;;;;10.80;75.24;100299.05;106629;1282;25656;-48
2023/05/18 00:11:58;;;;;;;3.00;2.40;;;;;;;10.72;75.90;100303.42;106730;1282;22562;-45
2023/05/18 00:14:26;;;;;;;7.70;2.70;;;;;;;10.63;76.35;100304.82;106721;1282;25288;-47
2023/05/18 00:16:53;;;;;;;4.00;2.40;;;;;;;10.56;76.42;100302.03;106834;1282;22756;-44
2023/05/18 00:19:22;;;;;;;7.70;3.40;;;;;;;10.48;76.46;100300.29;106724;1282;25222;-44
2023/05/18 00:21:51;;;;;;;13.10;4.00;;;;;;;10.41;76.69;100298.01;106748;1282;22527;-45
2023/05/18 00:24:18;;;;;;;5.20;2.50;;;;;;;10.33;77.20;100298.16;106366;1282;22531;-44
2023/05/18 00:26:45;;;;;;;5.20;3.00;;;;;;;10.27;77.62;100299.22;106925;1282;23649;-44
2023/05/18 00:29:12;;;;;;;5.80;2.80;;;;;;;10.24;78.05;100299.37;106511;1282;22537;-46
2023/05/18 00:31:40;;;;;;;4.40;2.60;;;;;;;10.19;78.23;100296.55;106750;1282;22312;-44
2023/05/18 00:34:08;;;;;;;6.00;2.80;;;;;;;10.16;78.84;100293.59;107111;1282;24185;-45
2023/05/18 00:36:36;;;;;;;6.00;2.80;;;;;;;10.12;79.02;100296.70;106785;1282;22299;-47
2023/05/18 00:39:03;;;;;;;4.10;2.80;;;;;;;10.11;79.56;100302.30;106928;1282;23309;-43
2023/05/18 00:41:30;;;;;;;11.50;2.90;;;;;;;10.08;79.74;100295.48;106475;1282;23100;-48
2023/05/18 00:43:58;;;;;;;6.60;2.90;;;;;;;10.08;79.99;100296.19;107060;1282;25409;-49
2023/05/18 00:46:26;;;;;;;9.80;4.00;;;;;;;10.09;80.19;100294.80;106935;1262;24270;-45
2023/05/18 00:48:55;;;;;;;8.20;3.80;;;;;;;10.08;80.20;100295.66;106739;1281;22567;-49
2023/05/18 00:51:23;;;;;;;6.00;2.70;;;;;;;10.07;80.41;100297.74;106654;1282;22745;-45
2023/05/18 00:53:51;;;;;;;5.90;2.80;;;;;;;10.05;80.67;100294.61;106732;1281;22188;-45
2023/05/18 00:56:18;;;;;;;6.70;2.90;;;;;;;10.03;80.77;100296.52;106855;1281;22538;-48
2023/05/18 00:58:47;;;;;;;8.20;3.20;;;;;;;10.00;80.83;100293.04;106694;1281;24236;-44
2023/05/18 01:01:16;;;;;;;5.50;2.80;;;;;;;9.92;81.57;100294.93;107011;1281;22574;-48
2023/05/18 01:03:43;;;;;;;4.20;2.70;;;;;;;9.85;82.07;100291.77;106497;1281;22537;-45
2023/05/18 01:06:11;;;;;;;11.20;2.80;;;;;;;9.77;82.53;100290.89;106837;1281;22555;-48
2023/05/18 01:08:40;;;;;;;5.40;2.90;;;;;;;9.71;82.91;100292.95;106697;1281;25477;-48
2023/05/18 01:11:37;;;;;;;6.20;2.90;;;;;;;9.70;83.28;100291.73;107883;1281;25488;-44
2023/05/18 01:14:19;;;;;;;4.20;2.90;;;;;;;9.70;83.32;100296.09;107041;1281;22633;-45
2023/05/18 01:17:09;;;;;;;4.10;2.60;;;;;;;9.69;83.46;100298.70;106700;1281;22583;-48
2023/05/18 01:19:51;;;;;;;4.50;2.70;;;;;;;9.70;83.50;100302.88;107314;1281;23919;-48
2023/05/18 01:22:43;;;;;;;6.60;2.90;;;;;;;9.67;83.50;100306.87;106612;1281;22526;-44
2023/05/18 01:25:18;;;;;;;3.90;2.40;;;;;;;9.60;83.78;100307.38;106711;1281;23305;-44
2023/05/18 01:27:45;;;;;;;6.00;3.10;;;;;;;9.51;83.87;100305.94;106798;1281;26663;-45
2023/05/18 01:30:14;;;;;;;6.90;3.40;;;;;;;9.44;84.06;100312.16;107098;1281;22553;-45
2023/05/18 01:32:42;;;;;;;4.50;2.50;;;;;;;9.41;84.29;100312.52;106719;1281;25328;-46
2023/05/18 01:35:09;;;;;;;4.70;3.00;;;;;;;9.44;84.34;100315.83;107317;1281;23881;-48
2023/05/18 01:37:36;;;;;;;5.50;3.00;;;;;;;9.48;84.34;100316.02;106910;1281;22807;-49
2023/05/18 01:40:04;;;;;;;4.10;2.80;;;;;;;9.48;84.34;100314.80;106762;1281;24485;-50
2023/05/18 01:42:33;;;;;;;6.60;3.00;;;;;;;9.48;84.24;100316.02;106918;1281;22700;-47
2023/05/18 01:45:02;;;;;;;6.50;2.90;;;;;;;9.44;84.31;100315.65;106955;1281;25272;-44
2023/05/18 01:47:30;;;;;;;8.70;2.50;;;;;;;9.39;84.47;100313.01;106493;1281;22527;-45
2023/05/18 01:50:13;;;;;;;6.10;2.90;;;;;;;9.37;84.73;100319.96;106321;1281;23895;-43
2023/05/18 01:52:56;;;;;;;5.90;2.40;;;;;;;9.34;84.92;100319.09;106735;1280;24200;-45
2023/05/18 01:55:23;;;;;;;5.50;2.20;;;;;;;9.33;85.21;100322.73;106781;1281;22561;-48
2023/05/18 01:57:51;;;;;;;6.90;3.10;;;;;;;9.31;85.36;100323.41;106597;1281;24179;-47
2023/05/18 02:00:18;;;;;;;9.40;2.80;;;;;;;9.23;85.47;100325.27;106497;1281;25204;-44
2023/05/18 02:02:46;;;;;;;6.80;3.00;;;;;;;9.15;85.88;100324.70;106523;1281;22522;-45
2023/05/18 02:05:13;;;;;;;5.20;3.60;;;;;;;9.09;86.31;100328.84;106973;1281;22536;-44
2023/05/18 02:07:42;;;;;;;3.90;2.40;;;;;;;9.04;86.73;100332.48;106743;1281;22798;-44
2023/05/18 02:10:10;;;;;;;6.10;2.30;;;;;;;8.99;86.93;100333.14;106726;1281;22245;-48
2023/05/18 02:12:37;;;;;;;8.10;2.80;;;;;;;8.97;87.40;100335.55;106480;1281;22541;-44
2023/05/18 02:15:06;;;;;;;4.90;3.00;;;;;;;8.95;87.56;100337.28;106666;1281;24837;-44
2023/05/18 02:17:36;;;;;;;8.90;3.00;;;;;;;8.93;87.79;100336.05;106678;1281;24428;-44
2023/05/18 02:20:08;;;;;;;3.80;2.50;;;;;;;8.91;88.05;100336.37;106753;1281;22819;-45
2023/05/18 02:22:35;;;;;;;7.70;4.10;;;;;;;8.94;88.09;100337.79;106762;1281;22784;-47
2023/05/18 02:25:04;;;;;;;3.70;2.60;;;;;;;8.96;88.06;100338.49;106663;1281;22539;-45
2023/05/18 02:27:32;;;;;;;2.90;2.30;;;;;;;8.97;87.99;100339.55;106843;1281;22536;-46
2023/05/18 02:29:59;;;;;;;7.50;2.90;;;;;;;8.95;88.13;100340.58;106725;1272;22670;-44
2023/05/18 02:32:26;;;;;;;9.30;2.70;;;;;;;8.93;88.19;100344.23;106705;1281;25583;-45
2023/05/18 02:34:54;;;;;;;6.60;3.20;;;;;;;8.93;88.57;100344.73;106977;1281;22557;-49
2023/05/18 02:37:21;;;;;;;6.10;2.70;;;;;;;8.96;88.73;100344.77;106521;1281;22663;-45
2023/05/18 02:39:49;;;;;;;5.20;3.10;;;;;;;9.00;88.70;100343.41;106941;1260;22544;-48
2023/05/18 02:42:16;;;;;;;3.70;2.80;;;;;;;9.05;88.66;100346.76;106515;1281;22532;-44
2023/05/18 02:44:43;;;;;;;8.70;2.80;;;;;;;9.12;88.60;100349.40;106947;1281;22943;-43
2023/05/18 02:47:12;;;;;;;5.70;2.80;;;;;;;9.20;88.22;100355.20;106452;1281;22663;-44
2023/05/18 02:49:40;;;;;;;9.80;2.90;;;;;;;9.27;87.85;100351.42;106970;1281;22527;-45
2023/05/18 02:52:07;;;;;;;3.50;2.50;;;;;;;9.32;87.29;100353.36;106927;1281;22533;-45
2023/05/18 02:54:35;;;;;;;5.40;2.70;;;;;;;9.34;86.94;100354.08;106819;1281;24218;-48
2023/05/18 02:57:02;;;;;;;7.70;3.00;;;;;;;9.33;86.98;100354.59;106697;1281;23897;-45
2023/05/18 02:59:42;;;;;;;6.70;3.20;;;;;;;9.32;87.09;100354.92;106498;1281;23885;-44
2023/05/18 03:02:13;;;;;;;6.40;3.10;;;;;;;9.32;87.13;100356.66;106750;1281;22567;-43
2023/05/18 03:04:41;;;;;;;4.20;2.60;;;;;;;9.36;87.31;100358.43;106541;1281;24356;-44
2023/05/18 03:07:09;;;;;;;5.40;2.90;;;;;;;9.41;87.32;100362.30;106778;1281;22536;-44
2023/05/18 03:09:36;;;;;;;5.90;3.20;;;;;;;9.49;87.37;100363.20;107065;1281;23558;-43
2023/05/18 03:12:05;;;;;;;12.20;3.10;;;;;;;9.56;87.26;100363.42;106834;1281;22536;-47
2023/05/18 03:14:33;;;;;;;8.50;3.10;;;;;;;9.66;87.24;100365.55;106643;1270;22533;-46
2023/05/18 03:17:00;;;;;;;3.50;2.70;;;;;;;9.75;87.11;100362.11;106878;1281;22921;-44
2023/05/18 03:19:27;;;;;;;12.70;3.40;;;;;;;9.83;86.94;100363.19;106756;1281;22678;-48
2023/05/18 03:21:56;;;;;;;6.50;3.10;;;;;;;9.89;86.82;100367.39;106656;1281;24251;-43
2023/05/18 03:24:25;;;;;;;6.10;3.00;;;;;;;9.95;86.76;100366.20;106998;1273;22957;-46
2023/05/18 03:26:54;;;;;;;7.30;3.10;;;;;;;10.02;86.95;100367.98;106746;1281;25304;-47
2023/05/18 03:29:21;;;;;;;3.50;2.70;;;;;;;10.12;86.70;100368.17;106848;1281;22547;-43
2023/05/18 03:31:48;;;;;;;12.30;2.80;;;;;;;10.23;86.52;100367.52;106982;1281;25232;-44
2023/05/18 03:34:16;;;;;;;10.60;3.10;;;;;;;10.33;86.36;100371.92;106514;1281;25272;-47
2023/05/18 03:36:46;;;;;;;6.30;3.20;;;;;;;10.43;86.65;100373.88;106793;1281;22556;-43
2023/05/18 03:39:13;;;;;;;8.40;3.40;;;;;;;10.53;86.66;100377.19;106693;1281;22805;-44
2023/05/18 03:41:40;;;;;;;11.10;3.70;;;;;;;10.64;86.59;100377.55;106788;1281;24561;-45
2023/05/18 03:44:07;;;;;;;8.10;4.50;;;;;;;10.74;86.52;100380.87;106624;1281;22541;-48
2023/05/18 03:46:35;;;;;;;14.80;4.40;;;;;;;10.86;86.13;100382.63;106453;1281;22523;-46
2023/05/18 03:49:03;;;;;;;18.10;4.70;;;;;;;11.01;86.22;100379.65;106557;1281;25284;-45
2023/05/18 03:51:35;;;;;;;11.40;4.10;;;;;;;11.16;85.69;100381.04;106892;1281;25294;-47
2023/05/18 03:54:02;;;;;;;13.30;4.40;;;;;;;11.32;85.16;100382.08;106674;1281;24387;-44
2023/05/18 03:56:30;;;;;;;12.00;4.10;;;;;;;11.47;84.51;100382.56;106960;1281;24309;-44
2023/05/18 03:58:57;;;;;;;9.80;4.50;;;;;;;11.63;83.80;100385.49;107070;1281;22574;-45
2023/05/18 04:01:24;;;;;;;11.20;4.70;;;;;;;11.78;83.05;100390.88;106631;1281;22672;-44
2023/05/18 04:03:55;;;;;;;17.20;5.50;;;;;;;11.92;82.49;100387.17;108840;1281;22650;-48
2023/05/18 04:06:25;;;;;;;8.40;4.10;;;;;;;12.07;82.40;100386.06;107178;1280;22536;-44
2023/05/18 04:08:52;;;;;;;12.10;4.80;;;;;;;12.21;82.42;100387.73;106527;1281;22536;-44
2023/05/18 04:11:20;;;;;;;10.70;5.20;;;;;;;12.35;82.27;100388.89;107272;1281;22375;-45
2023/05/18 04:13:48;;;;;;;17.50;6.10;;;;;;;12.50;82.19;100391.41;106814;1280;25337;-47
2023/05/18 04:16:15;;;;;;;15.30;5.10;;;;;;;12.66;81.96;100389.39;106941;1281;22557;-49
2023/05/18 04:18:43;;;;;;;14.40;4.90;;;;;;;12.82;81.84;100385.60;106581;1281;25332;-45
2023/05/18 04:21:10;;;;;;;11.20;5.50;;;;;;;12.99;81.38;100382.31;106826;1281;24062;-45
2023/05/18 04:23:37;;;;;;;8.50;5.50;;;;;;;13.17;81.26;100387.41;108589;1282;23529;-48
2023/05/18 04:26:05;;;;;;;11.70;7.20;;;;;;;13.37;81.18;100381.46;109932;1273;22439;-45
2023/05/18 04:28:32;;;;;;;12.30;5.90;;;;;;;13.58;81.12;100382.64;109828;1276;22537;-45
2023/05/18 04:31:00;;;;;;;19.20;6.30;;;;;;;13.81;80.87;100379.39;109850;1281;22282;-45
2023/05/18 04:33:28;;;;;;;16.40;6.30;;;;;;;14.03;79.72;100374.05;109838;1281;22366;-45
2023/05/18 04:35:57;;;;;;;14.80;6.00;;;;;;;14.26;78.27;100377.08;107516;1275;22527;-44
2023/05/18 04:38:24;;;;;;;13.40;6.20;;;;;;;14.48;77.16;100372.58;107797;1275;24205;-43
2023/05/18 04:40:52;;;;;;;12.80;5.90;;;;;;;14.69;76.92;100375.41;106455;1281;22534;-41
2023/05/18 04:43:20;;;;;;;18.50;6.90;;;;;;;14.93;76.35;100373.11;109378;1275;22685;-48
2023/05/18 04:45:49;;;;;;;13.60;7.20;;;;;;;15.15;75.61;100373.78;109869;1275;22309;-42
2023/05/18 04:48:18;;;;;;;17.40;6.40;;;;;;;15.38;75.36;100368.80;109786;1273;22414;-43
2023/05/18 04:50:45;;;;;;;16.80;6.10;;;;;;;15.60;74.79;100366.28;109899;1275;22290;-48
2023/05/18 04:53:16;;;;;;;13.00;6.50;;;;;;;15.84;73.92;100367.41;109842;1281;22877;-42
2023/05/18 04:55:45;;;;;;;15.00;6.40;;;;;;;16.10;73.15;100369.32;109826;1277;22406;-42
2023/05/18 04:58:12;;;;;;;18.70;5.80;;;;;;;16.35;71.61;100368.42;107451;1281;25355;-41
2023/05/18 05:00:39;;;;;;;9.70;5.60;;;;;;;16.62;68.30;100370.98;107540;1275;22588;-42
2023/05/18 05:03:06;;;;;;;14.20;5.90;;;;;;;16.88;66.16;100367.92;107236;1281;22525;-45
2023/05/18 05:05:33;;;;;;;12.90;5.60;;;;;;;17.13;65.34;100366.40;108409;1276;22681;-42
2023/05/18 05:08:00;;;;;;;15.50;7.50;;;;;;;17.37;64.24;100366.45;107059;1275;22547;-42
2023/05/18 05:10:28;;;;;;;7.40;5.30;;;;;;;17.60;62.94;100364.80;108802;1281;22526;-42
2023/05/18 05:12:55;;;;;;;9.70;5.30;;;;;;;17.81;62.98;100359.11;109213;1274;22414;-42
2023/05/18 05:15:23;;;;;;;12.90;6.40;;;;;;;18.01;63.00;100358.36;109823;1276;23276;-42
2023/05/18 05:17:50;;;;;;;15.80;5.80;;;;;;;18.19;62.18;100360.10;109688;1275;22376;-42
2023/05/18 05:20:17;;;;;;;14.50;7.40;;;;;;;18.39;61.53;100361.08;109785;1275;22592;-49
2023/05/18 05:22:44;;;;;;;12.40;6.10;;;;;;;18.59;60.66;100358.16;109623;1275;23262;-48
2023/05/18 05:25:15;;;;;;;12.80;5.20;;;;;;;18.78;59.59;100358.98;109756;1276;22842;-43
2023/05/18 05:27:43;;;;;;;8.90;4.70;;;;;;;18.98;58.09;100360.80;109515;1276;22370;-43
2023/05/18 05:30:11;;;;;;;9.60;5.50;;;;;;;19.17;56.53;100357.67;109568;1274;25338;-44
2023/05/18 05:32:41;;;;;;;9.80;5.60;;;;;;;19.36;56.16;100355.41;109285;1273;22457;-45
2023/05/18 05:35:13;;;;;;;12.10;5.60;;;;;;;19.56;55.35;100357.89;108343;1269;22424;-43
2023/05/18 05:38:17;;;;;;;9.70;6.40;;;;;;;19.76;52.90;100352.79;109010;1273;22422;-43
2023/05/18 05:41:03;;;;;;;11.50;5.90;;;;;;;19.99;51.95;100351.38;108834;1276;188761;-43
2023/05/18 05:43:38;;;;;;;7.70;6.00;;;;;;;20.16;50.90;100352.15;108964;1275;22419;-43
2023/05/18 05:49:42;;;;;;;7.90;5.80;;;;;;;20.52;48.69;100350.95;108830;1278;22415;-51
2023/05/18 05:52:27;;;;;;;12.90;6.80;;;;;;;20.65;47.17;100349.33;108758;1276;23297;-44
2023/05/18 05:55:27;;;;;;;14.40;6.20;;;;;;;20.80;47.59;100348.77;108844;1273;22691;-42
2023/05/18 05:58:38;;;;;;;10.00;6.60;;;;;;;20.98;47.66;100352.23;109382;1274;22291;-52
2023/05/18 06:01:31;;;;;;;9.30;6.30;;;;;;;21.15;46.05;100348.70;109092;1276;22383;-52
2023/05/18 06:04:11;;;;;;;11.40;6.20;;;;;;;21.31;45.84;100350.16;108039;1276;23102;-51
2023/05/18 06:06:38;;;;;;;10.00;6.60;;;;;;;21.44;45.82;100349.73;109496;1274;22277;-51
2023/05/18 06:09:06;;;;;;;9.40;6.10;;;;;;;21.58;45.28;100345.96;109071;1276;22447;-51
2023/05/18 06:11:35;;;;;;;7.10;5.80;;;;;;;21.70;44.33;100343.98;108302;1276;23805;-50
2023/05/18 06:14:18;;;;;;;9.10;6.10;;;;;;;21.83;44.00;100346.05;109282;1273;22420;-49
2023/05/18 06:17:08;;;;;;;9.80;5.60;;;;;;;21.97;43.10;100344.14;108754;1276;23070;-52
2023/05/18 06:20:31;;;;;;;18.80;7.70;;;;;;;22.11;41.95;100343.20;108864;1276;22417;-43
2023/05/18 06:36:18;;;;;;;9.30;6.30;;;;;;;22.72;38.93;100344.87;108547;1276;22917;-44
2023/05/18 06:39:17;;;;;;;11.10;6.00;;;;;;;22.88;38.24;100343.00;108939;1267;22766;-53
2023/05/18 06:42:11;;;;;;;8.00;5.30;;;;;;;23.03;37.62;100341.73;108607;1274;22638;-45
2023/05/18 06:44:50;;;;;;;14.70;7.10;;;;;;;23.13;36.75;100338.55;108788;1277;23307;-44
2023/05/18 06:47:23;;;;;;;11.70;6.40;;;;;;;23.21;37.46;100343.30;108911;1276;22547;-43
2023/05/18 06:49:54;;;;;;;14.80;6.20;;;;;;;23.31;38.53;100344.18;108982;1273;23106;-52
2023/05/18 06:52:26;;;;;;;11.30;6.10;;;;;;;23.43;37.10;100345.77;109141;1276;22546;-52
2023/05/18 06:55:00;;;;;;;14.90;6.90;;;;;;;23.53;36.47;100348.95;108980;1279;22324;-46
2023/05/18 06:57:27;;;;;;;15.20;6.10;;;;;;;23.63;36.26;100347.02;109330;1268;22526;-52
2023/05/18 06:59:55;;;;;;;16.00;7.00;;;;;;;23.71;35.49;100352.80;109362;1276;22417;-54
2023/05/18 07:02:24;;;;;;;17.00;7.30;;;;;;;23.78;36.00;100349.25;109472;1275;22404;-54
2023/05/18 07:04:51;;;;;;;12.60;6.40;;;;;;;23.85;36.34;100347.61;109420;1281;22170;-53
2023/05/18 07:07:19;;;;;;;12.60;6.30;;;;;;;23.94;35.18;100350.89;109529;1278;22406;-53
2023/05/18 07:09:48;;;;;;;9.00;6.30;;;;;;;24.04;35.08;100346.92;109158;1276;22831;-48
2023/05/18 07:12:16;;;;;;;9.30;5.90;;;;;;;24.13;33.74;100351.95;109113;1275;22462;-45
2023/05/18 07:14:43;;;;;;;11.50;6.90;;;;;;;24.21;33.67;100354.71;109495;1274;22603;-45
2023/05/18 07:17:10;;;;;;;7.90;6.00;;;;;;;24.31;33.23;100356.66;109378;1276;23643;-48
2023/05/18 07:19:44;;;;;;;9.40;5.70;;;;;;;24.38;32.78;100359.11;109463;1279;22415;-49
2023/05/18 07:22:11;;;;;;;9.30;6.20;;;;;;;24.45;32.78;100362.34;109527;1274;23490;-48
2023/05/18 07:24:37;;;;;;;8.90;6.20;;;;;;;24.52;32.67;100357.13;109591;1275;23069;-49
2023/05/18 07:27:05;;;;;;;12.70;6.80;;;;;;;24.58;31.85;100352.67;109204;1275;22454;-45
2023/05/18 07:29:32;;;;;;;8.60;8.20;;;;;;;24.59;32.17;100356.19;109585;1278;22521;-46
2023/05/18 07:32:00;;;;;;;11.60;5.80;;;;;;;24.65;32.42;100358.69;109578;1265;22237;-45
2023/05/18 07:34:27;;;;;;;11.20;6.70;;;;;;;24.75;32.14;100363.99;109577;1266;22362;-45
2023/05/18 07:36:55;;;;;;;10.00;6.20;;;;;;;24.82;31.62;100362.70;109666;1274;22618;-49
2023/05/18 07:39:27;;;;;;;9.10;6.30;;;;;;;24.87;30.92;100361.12;109654;1275;22395;-46
2023/05/18 07:41:54;;;;;;;;;;;;;;;24.88;31.21;100356.12;109724;1276;23321;-47
2023/05/18 07:44:23;;;;;;;11.00;5.50;;;;;;;24.89;31.15;100356.05;109669;1276;23045;-48
2023/05/18 07:46:55;;;;;;;8.40;7.00;;;;;;;24.94;31.84;100355.76;109096;1281;23346;-44
2023/05/18 07:49:22;;;;;;;8.30;6.40;;;;;;;25.01;31.12;100358.36;109555;1275;22352;-44
2023/05/18 07:51:52;;;;;;;8.00;6.50;;;;;;;25.07;30.34;100357.66;109214;1274;22573;-48
2023/05/18 07:54:28;;;;;;;8.90;6.70;;;;;;;25.11;30.38;100359.73;108926;1271;22758;-47
2023/05/18 07:56:58;;;;;;;9.60;6.50;;;;;;;25.17;30.88;100359.39;109273;1273;23074;-47
2023/05/18 07:59:29;;;;;;;12.80;7.00;;;;;;;25.24;30.95;100355.04;108825;1275;22530;-43
2023/05/18 08:02:00;;;;;;;9.00;6.10;;;;;;;25.29;30.93;100356.38;108208;1276;23065;-44
2023/05/18 08:04:30;;;;;;;8.60;6.40;;;;;;;25.34;30.23;100356.79;109496;1276;22195;-48
2023/05/18 08:07:09;;;;;;;8.70;6.00;;;;;;;25.37;29.79;100355.48;108511;1276;22950;-44
2023/05/18 08:10:21;;;;;;;6.80;5.50;;;;;;;25.39;29.53;100357.70;107927;1274;23037;-44
2023/05/18 08:14:10;;;;;;;14.00;7.50;;;;;;;25.44;29.89;100348.64;109128;1275;22515;-48
2023/05/18 08:17:03;;;;;;;8.70;7.10;;;;;;;25.53;28.42;100342.41;108370;1275;22546;-44
2023/05/18 08:23:52;;;;;;;8.10;6.10;;;;;;;25.69;28.69;100341.61;109376;1273;22363;-44
2023/05/18 08:26:40;;;;;;;;;;;;;;;25.75;28.40;100335.73;108530;1279;22628;-44
2023/05/18 08:29:13;;;;;;;;;;;;;;;25.85;28.43;100334.20;108628;1275;22943;-46
2023/05/18 08:32:16;;;;;;;13.80;7.00;;;;;;;25.92;27.67;100334.67;108450;1273;22392;-44
2023/05/18 08:39:03;;;;;;;9.00;7.00;;;;;;;26.08;27.32;100334.55;108745;1275;22762;-48
2023/05/18 08:42:47;;;;;;;10.70;7.10;;;;;;;26.12;26.60;100331.59;108502;1273;22340;-47
2023/05/18 08:45:38;;;;;;;15.00;8.00;;;;;;;26.11;27.67;100333.45;109152;1278;23382;-44
2023/05/18 08:48:16;;;;;;;13.80;7.40;;;;;;;26.22;28.27;100325.39;108677;1279;23229;-45
2023/05/18 08:51:21;;;;;;;10.40;6.80;;;;;;;26.38;27.63;100321.89;109282;1285;22408;-47
2023/05/18 08:54:25;;;;;;;12.30;6.90;;;;;;;26.47;27.44;100326.70;108964;1279;23715;-46
2023/05/18 08:57:18;;;;;;;11.90;6.60;;;;;;;26.52;28.10;100327.27;108893;1282;22379;-48
2023/05/18 09:04:02;;;;;;;10.30;6.60;;;;;;;26.69;28.12;100317.69;109103;1279;23392;-48
2023/05/18 09:10:34;;;;;;;12.20;7.10;;;;;;;26.98;27.08;100315.59;109202;1281;22328;-45
2023/05/18 09:13:22;;;;;;;9.70;7.10;;;;;;;27.04;26.70;100311.02;108562;1279;22595;-48
2023/05/18 09:20:27;;;;;;;10.20;7.40;;;;;;;27.09;26.39;100301.43;108569;1279;22419;-45
2023/05/18 09:26:36;;;;;;;9.60;6.50;;;;;;;27.10;26.27;100298.16;108860;1282;22430;-48
2023/05/18 09:30:16;;;;;;;12.30;7.00;;;;;;;27.06;26.87;100296.44;109522;1275;22526;-44
2023/05/18 09:33:16;;;;;;;8.80;7.20;;;;;;;27.09;26.81;100294.87;109436;1282;22524;-45
2023/05/18 09:35:46;;;;;;;10.70;6.70;;;;;;;27.08;26.84;100286.10;109303;1276;22381;-48
2023/05/18 09:38:26;;;;;;;11.50;7.40;;;;;;;27.10;27.43;100288.30;109149;1276;23028;-48
2023/05/18 09:41:20;;;;;;;15.70;7.40;;;;;;;27.08;28.88;100284.17;108956;1278;22767;-48
2023/05/18 09:44:27;;;;;;;8.90;6.70;;;;;;;26.95;28.54;100283.00;109502;1275;22298;-47
2023/05/18 09:50:27;;;;;;;9.80;7.20;;;;;;;26.89;28.12;100278.95;109292;1276;22405;-43
2023/05/18 09:53:02;;;;;;;20.50;8.20;;;;;;;26.93;28.15;100280.98;109369;1277;22373;-43
2023/05/18 09:55:29;;;;;;;17.90;8.90;;;;;;;26.98;27.94;100281.95;109477;1280;22338;-42
2023/05/18 09:57:57;;;;;;;12.00;8.00;;;;;;;27.00;27.38;100275.49;108777;1282;22378;-43
2023/05/18 10:00:25;;;;;;;13.00;8.00;;;;;;;26.95;27.55;100275.14;109634;1282;22436;-41
2023/05/18 10:02:55;;;;;;;12.60;9.00;;;;;;;26.86;27.34;100269.87;109422;1275;22403;-43
2023/05/18 10:05:26;;;;;;;12.30;8.30;;;;;;;26.83;27.96;100264.52;109475;1282;22296;-41
2023/05/18 10:07:55;;;;;;;12.50;8.10;;;;;;;26.85;28.40;100261.03;108896;1275;22404;-43
2023/05/18 10:10:29;;;;;;;12.30;7.90;;;;;;;26.92;28.70;100256.59;108531;1279;22860;-43
2023/05/18 10:13:03;;;;;;;11.50;7.60;;;;;;;27.00;28.33;100255.84;107854;1275;22541;-41
2023/05/18 10:15:32;;;;;;;15.00;8.40;;;;;;;27.04;27.85;100262.89;109269;1281;22512;-46
2023/05/18 10:17:59;;;;;;;9.90;7.80;;;;;;;27.08;28.39;100254.63;109428;1276;23099;-46
2023/05/18 10:20:26;;;;;;;9.10;7.60;;;;;;;27.14;27.87;100254.90;109449;1281;22314;-46
2023/05/18 10:22:54;;;;;;;14.40;8.40;;;;;;;27.22;27.39;100253.65;109229;1279;22313;-43
2023/05/18 10:25:22;;;;;;;14.70;8.30;;;;;;;27.23;27.26;100252.31;108767;1275;22398;-42
2023/05/18 10:27:50;;;;;;;11.50;8.90;;;;;;;27.16;27.15;100252.29;109281;1276;22790;-46
2023/05/18 10:30:17;;;;;;;12.00;8.40;;;;;;;27.08;27.51;100254.07;109358;1279;22184;-43
2023/05/18 10:32:45;;;;;;;7.80;7.00;;;;;;;26.96;27.39;100254.84;109411;1278;22608;-43
2023/05/18 10:35:12;;;;;;;12.70;7.90;;;;;;;26.93;27.52;100250.97;108993;1275;22534;-41
2023/05/18 10:37:42;;;;;;;12.30;7.90;;;;;;;27.19;27.62;100253.15;109080;1281;22479;-41
2023/05/18 10:40:10;;;;;;;9.00;8.10;;;;;;;27.57;27.16;100250.97;109366;1267;23405;-40
2023/05/18 10:42:38;;;;;;;12.30;8.30;;;;;;;27.79;27.37;100250.86;109082;1279;22833;-41
2023/05/18 10:45:06;;;;;;;14.60;8.00;;;;;;;27.90;27.21;100258.30;109467;1281;22367;-46
2023/05/18 10:47:34;;;;;;;11.40;9.00;;;;;;;27.83;27.12;100255.77;109545;1276;23120;-45
2023/05/18 10:50:02;;;;;;;12.50;7.90;;;;;;;27.67;26.84;100253.89;109623;1281;22348;-47
2023/05/18 10:52:30;;;;;;;12.60;8.80;;;;;;;27.63;26.69;100251.13;109568;1276;22425;-44
2023/05/18 10:54:59;;;;;;;12.80;8.10;;;;;;;27.75;26.85;100246.35;108989;1281;22556;-42
2023/05/18 10:57:33;;;;;;;12.30;8.00;;;;;;;27.87;26.80;100250.27;109134;1276;22226;-42
2023/05/18 11:00:08;;;;;;;12.30;7.80;;;;;;;27.85;26.69;100252.73;109630;1279;23698;-43
2023/05/18 11:02:38;;;;;;;14.20;8.80;;;;;;;27.69;26.33;100256.02;108949;1281;22360;-45
2023/05/18 11:05:06;;;;;;;13.10;8.70;;;;;;;27.51;26.70;100250.52;109581;1281;22305;-42
2023/05/18 11:07:33;;;;;;;14.80;8.40;;;;;;;27.32;26.73;100251.55;109639;1281;23191;-43
2023/05/18 11:10:01;;;;;;;10.00;7.30;;;;;;;27.12;27.05;100249.00;109570;1281;22300;-43
2023/05/18 11:12:31;;;;;;;11.30;7.40;;;;;;;26.94;26.72;100246.59;109672;1281;23979;-47
2023/05/18 11:14:59;;;;;;;9.60;7.40;;;;;;;26.77;27.02;100249.94;109549;1276;22305;-47
2023/05/18 11:17:29;;;;;;;10.70;8.10;;;;;;;26.63;27.02;100248.68;109472;1281;22865;-43
2023/05/18 11:20:10;;;;;;;11.10;8.10;;;;;;;26.65;27.47;100243.90;109632;1281;22377;-43
2023/05/18 11:22:44;;;;;;;12.20;8.20;;;;;;;26.81;27.48;100235.69;109648;1281;23286;-43
2023/05/18 11:25:26;;;;;;;11.70;8.60;;;;;;;27.00;26.87;100235.77;109743;1279;22303;-43
2023/05/18 11:27:54;;;;;;;;;;;;;;;27.18;26.81;100236.41;109753;1278;22988;-43
2023/05/18 11:30:39;;;;;;;9.90;7.30;;;;;;;27.25;27.14;100237.10;109683;1275;22414;-43
2023/05/18 11:33:26;;;;;;;13.50;7.30;;;;;;;27.36;26.84;100232.42;109679;1279;23344;-44
2023/05/18 11:36:13;;;;;;;9.80;8.00;;;;;;;27.47;26.90;100236.83;109747;1278;22708;-43
2023/05/18 11:39:03;;;;;;;16.30;7.70;;;;;;;27.48;27.03;100236.91;109674;1281;22192;-43
2023/05/18 11:41:34;;;;;;;14.10;8.30;;;;;;;27.41;26.83;100240.52;109686;1281;22292;-43
2023/05/18 11:44:10;;;;;;;10.40;7.60;;;;;;;27.23;26.66;100236.19;109707;1281;22343;-43
2023/05/18 11:46:53;;;;;;;13.50;8.10;;;;;;;27.08;26.53;100230.82;109727;1281;22782;-43
2023/05/18 11:49:22;;;;;;;11.10;8.80;;;;;;;26.98;26.76;100228.05;109716;1281;22244;-47
2023/05/18 11:52:03;;;;;;;9.60;8.40;;;;;;;27.03;27.11;100231.98;109715;1281;23142;-43
2023/05/18 11:54:42;;;;;;;12.30;8.50;;;;;;;27.10;26.57;100232.98;109697;1278;22230;-47
2023/05/18 11:57:09;;;;;;;10.70;7.90;;;;;;;27.13;26.43;100231.02;109757;1281;23134;-43
2023/05/18 11:59:38;;;;;;;12.00;8.70;;;;;;;27.15;26.58;100229.27;109869;1280;22913;-43
2023/05/18 12:02:05;;;;;;;8.90;7.60;;;;;;;27.22;27.10;100228.55;109239;1281;22404;-43
2023/05/18 12:04:32;;;;;;;10.20;8.10;;;;;;;27.35;26.83;100227.16;108121;1281;22655;-42
2023/05/18 12:07:03;;;;;;;11.10;8.40;;;;;;;27.50;26.77;100227.46;107480;1281;23904;-48
2023/05/18 12:09:30;;;;;;;13.00;8.30;;;;;;;27.72;26.87;100222.50;107075;1281;23237;-47
2023/05/18 12:11:57;;;;;;;9.20;8.30;;;;;;;27.87;26.33;100228.21;109811;1281;22297;-43
2023/05/18 12:14:24;;;;;;;12.00;7.70;;;;;;;27.83;24.78;100224.23;109871;1281;22323;-43
2023/05/18 12:16:51;;;;;;;10.50;8.10;;;;;;;27.70;24.98;100222.48;109755;1281;22442;-47
2023/05/18 12:19:19;;;;;;;8.40;7.50;;;;;;;27.60;25.00;100227.52;109812;1281;22189;-43
2023/05/18 12:21:46;;;;;;;9.90;8.30;;;;;;;27.46;25.26;100225.64;109869;1282;22191;-43
2023/05/18 12:24:13;;;;;;;10.30;8.40;;;;;;;27.32;25.31;100226.59;109591;1281;22559;-47
2023/05/18 12:26:41;;;;;;;9.60;7.70;;;;;;;27.25;25.59;100225.86;107079;1281;23938;-41
2023/05/18 12:29:10;;;;;;;9.10;7.70;;;;;;;27.36;26.13;100226.87;106790;1281;22582;-47